createdAt,value
2023-04-20T00:01:55.207Z,70.70
2023-04-20T00:04:23.247Z,71.60
2023-04-20T00:06:52.028Z,73.40
2023-04-20T00:09:21.665Z,72.80
2023-04-20T00:11:49.596Z,72.10
2023-04-20T00:14:17.736Z,73.50
2023-04-20T00:16:45.883Z,73.00
2023-04-20T00:19:13.886Z,73.30
2023-04-20T00:21:41.800Z,72.10
2023-04-20T00:24:10.041Z,71.10
2023-04-20T00:26:40.435Z,72.00
2023-04-20T00:29:10.588Z,71.90
2023-04-20T00:31:38.561Z,73.10
2023-04-20T00:34:07.446Z,78.80
2023-04-20T00:36:35.509Z,79.00
2023-04-20T00:39:05.033Z,79.40
2023-04-20T00:41:33.005Z,84.40
2023-04-20T00:44:02.398Z,83.60
2023-04-20T00:46:30.523Z,91.00
2023-04-20T00:48:58.581Z,93.80
2023-04-20T00:51:26.608Z,91.90
2023-04-20T00:53:54.668Z,93.90
2023-04-20T00:56:22.674Z,94.90
2023-04-20T00:58:50.628Z,96.20
2023-04-20T01:01:20.029Z,96.70
2023-04-20T01:03:48.343Z,95.10
2023-04-20T01:06:16.646Z,94.90
2023-04-20T01:08:49.165Z,94.30
2023-04-20T01:11:17.160Z,93.00
2023-04-20T01:13:45.357Z,92.70
2023-04-20T01:16:13.814Z,92.00
2023-04-20T01:18:46.454Z,91.40
2023-04-20T01:21:16.488Z,91.20
2023-04-20T01:23:46.541Z,92.50
2023-04-20T01:26:17.316Z,93.70
2023-04-20T01:28:46.093Z,93.50
2023-04-20T01:31:14.708Z,92.90
2023-04-20T01:33:42.712Z,93.00
2023-04-20T01:36:10.959Z,94.60
2023-04-20T01:38:39.332Z,94.10
2023-04-20T01:41:10.223Z,94.50
2023-04-20T01:43:39.546Z,95.20
2023-04-20T01:46:07.812Z,92.40
2023-04-20T01:48:35.917Z,92.80
2023-04-20T01:51:03.950Z,92.90
2023-04-20T01:53:31.988Z,93.10
2023-04-20T01:56:00.505Z,92.10
2023-04-20T01:58:29.928Z,92.30
2023-04-20T02:00:57.919Z,93.00
2023-04-20T02:03:26.128Z,93.60
2023-04-20T02:05:54.207Z,93.60
2023-04-20T02:08:22.102Z,94.10
2023-04-20T02:10:50.141Z,94.90
2023-04-20T02:13:18.115Z,96.30
2023-04-20T02:15:47.454Z,94.20
2023-04-20T02:18:16.557Z,94.00
2023-04-20T02:20:44.846Z,93.50
2023-04-20T02:23:13.142Z,93.90
2023-04-20T02:25:41.152Z,93.80
2023-04-20T02:28:09.109Z,94.20
2023-04-20T02:30:37.065Z,93.50
2023-04-20T02:33:06.866Z,93.70
2023-04-20T02:35:35.054Z,93.90
2023-04-20T02:38:03.075Z,98.80
2023-04-20T02:40:31.071Z,99.40
2023-04-20T02:42:59.054Z,99.90
2023-04-20T02:45:27.021Z,99.90
2023-04-20T02:47:55.042Z,99.90
2023-04-20T02:50:24.539Z,99.90
2023-04-20T02:52:52.473Z,99.90
2023-04-20T02:55:20.696Z,99.90
2023-04-20T02:57:48.656Z,99.90
2023-04-20T03:00:17.226Z,99.90
2023-04-20T03:02:45.305Z,99.90
2023-04-20T03:05:13.344Z,99.90
2023-04-20T03:07:42.658Z,99.90
2023-04-20T03:10:11.687Z,99.90
2023-04-20T03:12:39.667Z,99.90
2023-04-20T03:15:08.706Z,99.90
2023-04-20T03:17:36.704Z,99.90
2023-04-20T03:20:05.863Z,99.90
2023-04-20T03:22:33.812Z,99.90
2023-04-20T03:25:03.182Z,99.90
2023-04-20T03:27:31.108Z,99.90
2023-04-20T03:30:00.389Z,99.90
2023-04-20T03:32:28.804Z,99.90
2023-04-20T03:34:57.785Z,99.90
2023-04-20T03:37:25.858Z,99.90
2023-04-20T03:39:53.892Z,99.90
2023-04-20T03:42:23.250Z,99.90
2023-04-20T03:44:51.173Z,99.90
2023-04-20T03:47:19.197Z,99.90
2023-04-20T03:49:47.144Z,99.90
2023-04-20T03:52:15.062Z,99.90
2023-04-20T03:54:43.055Z,99.90
2023-04-20T03:57:11.011Z,99.90
2023-04-20T03:59:40.413Z,99.90
2023-04-20T04:02:10.910Z,99.90
2023-04-20T04:04:39.059Z,99.90
2023-04-20T04:07:07.285Z,99.90
2023-04-20T04:09:35.250Z,99.90
2023-04-20T04:12:04.612Z,99.90
2023-04-20T04:14:33.724Z,99.90
2023-04-20T04:17:03.110Z,99.90
2023-04-20T04:19:31.103Z,99.90
2023-04-20T04:21:59.123Z,99.90
2023-04-20T04:24:28.100Z,99.90
2023-04-20T04:26:58.457Z,99.90
2023-04-20T04:29:26.840Z,99.90
2023-04-20T04:31:55.389Z,99.90
2023-04-20T04:34:29.762Z,99.90
2023-04-20T04:36:57.927Z,99.90
2023-04-20T04:39:26.764Z,99.90
2023-04-20T04:41:54.863Z,99.90
2023-04-20T04:44:22.966Z,99.90
2023-04-20T04:46:51.253Z,99.90
2023-04-20T04:49:20.458Z,99.90
2023-04-20T04:51:50.006Z,99.90
2023-04-20T04:54:18.096Z,99.90
2023-04-20T04:56:46.063Z,99.90
2023-04-20T04:59:14.071Z,99.90
2023-04-20T05:01:42.046Z,99.90
2023-04-20T05:04:10.311Z,99.90
2023-04-20T05:06:38.378Z,99.90
2023-04-20T05:09:07.724Z,99.90
2023-04-20T05:11:35.780Z,99.90
2023-04-20T05:14:03.764Z,99.90
2023-04-20T05:16:31.809Z,99.90
2023-04-20T05:18:59.874Z,99.90
2023-04-20T05:21:28.404Z,99.90
2023-04-20T05:23:56.419Z,99.90
2023-04-20T05:26:25.841Z,99.90
2023-04-20T05:28:53.846Z,99.90
2023-04-20T05:31:21.841Z,99.90
2023-04-20T05:33:49.791Z,99.90
2023-04-20T05:36:17.904Z,99.90
2023-04-20T05:38:46.269Z,99.90
2023-04-20T05:41:14.210Z,99.90
2023-04-20T05:43:43.526Z,99.90
2023-04-20T05:46:11.751Z,99.90
2023-04-20T05:48:39.845Z,99.90
2023-04-20T05:51:08.118Z,99.90
2023-04-20T05:53:36.133Z,99.90
2023-04-20T05:56:04.454Z,99.90
2023-04-20T05:58:33.843Z,99.90
2023-04-20T06:01:04.474Z,99.90
2023-04-20T06:03:32.767Z,99.90
2023-04-20T06:06:00.857Z,99.90
2023-04-20T06:08:28.905Z,99.90
2023-04-20T06:10:58.141Z,99.90
2023-04-20T06:13:26.264Z,99.90
2023-04-20T06:15:54.488Z,99.90
2023-04-20T06:18:24.085Z,99.90
2023-04-20T06:20:52.217Z,99.90
2023-04-20T06:23:20.316Z,99.90
2023-04-20T06:25:48.393Z,99.90
2023-04-20T06:28:19.671Z,99.90
2023-04-20T06:30:47.721Z,99.90
2023-04-20T06:33:17.287Z,99.90
2023-04-20T06:35:46.728Z,99.90
2023-04-20T06:38:14.837Z,99.90
2023-04-20T06:40:42.910Z,99.90
2023-04-20T06:43:10.861Z,99.90
2023-04-20T06:45:40.163Z,99.90
2023-04-20T06:48:20.176Z,99.90
2023-04-20T06:50:58.561Z,99.90
2023-04-20T06:53:26.666Z,99.90
2023-04-20T06:55:55.575Z,99.90
2023-04-20T06:58:23.893Z,99.90
2023-04-20T07:00:51.913Z,99.90
2023-04-20T07:03:22.609Z,99.90
2023-04-20T07:05:51.864Z,99.90
2023-04-20T07:08:22.263Z,99.90
2023-04-20T07:10:52.085Z,99.90
2023-04-20T07:13:21.432Z,99.90
2023-04-20T07:15:54.132Z,99.90
2023-04-20T07:18:22.637Z,99.90
2023-04-20T07:20:51.074Z,99.90
2023-04-20T07:23:19.214Z,99.90
2023-04-20T07:25:52.322Z,99.90
2023-04-20T07:28:20.463Z,99.90
2023-04-20T07:30:48.692Z,99.90
2023-04-20T07:33:16.707Z,99.90
2023-04-20T07:35:44.622Z,99.90
2023-04-20T07:38:12.737Z,99.90
2023-04-20T07:40:40.950Z,99.90
2023-04-20T07:43:11.478Z,99.90
2023-04-20T07:45:41.153Z,99.90
2023-04-20T07:48:12.501Z,99.90
2023-04-20T07:50:40.760Z,99.90
2023-04-20T07:53:08.900Z,99.90
2023-04-20T07:55:37.048Z,99.90
2023-04-20T07:58:05.043Z,99.90
2023-04-20T08:00:35.563Z,99.90
2023-04-20T08:03:03.720Z,99.90
2023-04-20T08:05:35.154Z,99.90
2023-04-20T08:08:03.104Z,99.90
2023-04-20T08:10:31.084Z,99.90
2023-04-20T08:12:59.403Z,99.90
2023-04-20T08:15:27.477Z,99.90
2023-04-20T08:17:56.896Z,99.90
2023-04-20T08:20:24.988Z,99.90
2023-04-20T08:22:53.295Z,99.90
2023-04-20T08:25:21.327Z,99.90
2023-04-20T08:27:49.443Z,99.90
2023-04-20T08:30:17.473Z,99.90
2023-04-20T08:32:45.769Z,99.90
2023-04-20T08:35:15.237Z,99.90
2023-04-20T08:37:43.394Z,99.90
2023-04-20T08:40:13.016Z,99.90
2023-04-20T08:42:44.292Z,99.90
2023-04-20T08:45:14.231Z,99.90
2023-04-20T08:47:44.606Z,99.90
2023-04-20T08:50:14.249Z,99.90
2023-04-20T08:52:42.266Z,99.90
2023-04-20T08:55:10.862Z,99.90
2023-04-20T08:57:38.885Z,99.90
2023-04-20T09:00:12.893Z,99.90
2023-04-20T09:02:51.474Z,99.90
2023-04-20T09:05:28.443Z,99.90
2023-04-20T09:07:57.861Z,99.90
2023-04-20T09:10:26.830Z,99.90
2023-04-20T09:12:55.084Z,99.90
2023-04-20T09:15:27.179Z,99.90
2023-04-20T09:17:55.644Z,99.90
2023-04-20T09:20:33.422Z,99.90
2023-04-20T09:23:12.970Z,99.90
2023-04-20T09:25:43.478Z,99.90
2023-04-20T09:28:11.522Z,99.90
2023-04-20T09:30:41.533Z,99.90
2023-04-20T09:33:12.424Z,99.90
2023-04-20T09:35:43.551Z,99.90
2023-04-20T09:38:19.758Z,99.90
2023-04-20T09:40:47.738Z,99.90
2023-04-20T09:43:20.064Z,99.90
2023-04-20T09:45:49.039Z,99.90
2023-04-20T09:48:19.582Z,99.90
2023-04-20T09:50:51.508Z,99.90
2023-04-20T09:53:20.871Z,99.90
2023-04-20T09:55:49.750Z,99.90
2023-04-20T09:58:20.252Z,99.90
2023-04-20T10:00:48.350Z,99.90
2023-04-20T10:03:18.445Z,99.90
2023-04-20T10:05:48.316Z,99.90
2023-04-20T10:08:16.327Z,99.90
2023-04-20T10:10:46.567Z,99.90
2023-04-20T10:13:15.542Z,99.90
2023-04-20T10:15:43.907Z,99.90
2023-04-20T10:18:19.781Z,99.90
2023-04-20T10:20:50.226Z,99.90
2023-04-20T10:23:19.791Z,99.90
2023-04-20T10:25:57.356Z,99.90
2023-04-20T10:28:25.535Z,99.90
2023-04-20T10:30:54.682Z,99.90
2023-04-20T10:33:22.815Z,99.90
2023-04-20T10:35:55.062Z,99.90
2023-04-20T10:38:31.076Z,99.90
2023-04-20T10:41:06.379Z,96.60
2023-04-20T10:43:35.242Z,97.00
2023-04-20T10:46:03.513Z,93.70
2023-04-20T10:48:31.738Z,94.80
2023-04-20T10:51:10.619Z,96.30
2023-04-20T10:53:38.563Z,97.90
2023-04-20T10:56:07.637Z,98.00
2023-04-20T10:58:35.579Z,95.90
2023-04-20T11:01:04.985Z,92.20
2023-04-20T11:03:35.520Z,90.30
2023-04-20T11:06:05.029Z,89.20
2023-04-20T11:08:40.282Z,85.80
2023-04-20T11:11:19.330Z,77.70
2023-04-20T11:13:47.444Z,74.20
2023-04-20T11:16:16.527Z,75.00
2023-04-20T11:18:52.831Z,69.80
2023-04-20T11:21:23.009Z,73.50
2023-04-20T11:23:51.417Z,72.30
2023-04-20T11:26:19.395Z,74.40
2023-04-20T11:28:55.875Z,77.10
2023-04-20T11:31:24.446Z,74.60
2023-04-20T11:33:52.551Z,78.60
2023-04-20T11:36:23.145Z,75.10
2023-04-20T11:38:51.875Z,68.70
2023-04-20T11:41:20.064Z,70.30
2023-04-20T11:43:49.122Z,69.30
2023-04-20T11:46:18.615Z,71.70
2023-04-20T11:48:49.520Z,68.80
2023-04-20T11:51:17.542Z,69.80
2023-04-20T11:53:47.013Z,76.40
2023-04-20T11:56:14.988Z,88.30
2023-04-20T11:58:43.010Z,99.90
2023-04-20T12:01:11.312Z,99.90
2023-04-20T12:03:39.362Z,99.90
2023-04-20T12:06:07.640Z,96.30
2023-04-20T12:08:35.902Z,97.80
2023-04-20T12:11:05.546Z,92.90
2023-04-20T12:13:33.536Z,90.80
2023-04-20T12:16:01.859Z,91.70
2023-04-20T12:18:29.905Z,91.80
2023-04-20T12:20:57.894Z,80.80
2023-04-20T12:23:25.931Z,88.10
2023-04-20T12:25:53.827Z,92.50
2023-04-20T12:28:23.271Z,84.60
2023-04-20T12:31:04.805Z,88.70
2023-04-20T12:33:32.891Z,84.40
2023-04-20T12:36:01.159Z,78.40
2023-04-20T12:38:29.244Z,81.90
2023-04-20T12:40:57.213Z,76.60
2023-04-20T12:43:26.907Z,84.50
2023-04-20T12:45:55.195Z,82.70
2023-04-20T12:48:23.404Z,74.10
2023-04-20T12:50:52.088Z,78.40
2023-04-20T12:53:21.733Z,66.90
2023-04-20T12:55:55.054Z,68.40
2023-04-20T12:58:30.015Z,69.60
2023-04-20T13:00:58.268Z,72.40
2023-04-20T13:03:26.690Z,80.50
2023-04-20T13:05:55.060Z,79.00
2023-04-20T13:08:23.087Z,82.70
2023-04-20T13:10:51.221Z,75.60
2023-04-20T13:13:19.275Z,76.00
2023-04-20T13:15:48.641Z,75.90
2023-04-20T13:18:16.695Z,64.40
2023-04-20T13:20:44.646Z,65.70
2023-04-20T13:23:12.683Z,65.30
2023-04-20T13:25:40.782Z,61.60
2023-04-20T13:28:08.698Z,58.50
2023-04-20T13:30:36.762Z,62.50
2023-04-20T13:33:06.576Z,61.80
2023-04-20T13:35:35.124Z,56.60
2023-04-20T13:38:03.932Z,57.30
2023-04-20T13:40:31.867Z,54.60
2023-04-20T13:42:59.842Z,56.10
2023-04-20T13:45:28.127Z,57.50
2023-04-20T13:47:56.122Z,58.50
2023-04-20T13:50:25.702Z,62.20
2023-04-20T13:52:53.626Z,93.90
2023-04-20T13:55:21.772Z,96.40
2023-04-20T13:57:49.708Z,95.60
2023-04-20T14:00:18.193Z,95.90
2023-04-20T14:02:47.354Z,99.90
2023-04-20T14:05:18.980Z,93.80
2023-04-20T14:07:48.281Z,95.90
2023-04-20T14:10:16.340Z,99.90
2023-04-20T14:12:44.284Z,99.90
2023-04-20T14:15:13.397Z,99.90
2023-04-20T14:17:41.401Z,99.90
2023-04-20T14:20:10.738Z,99.90
2023-04-20T14:22:52.712Z,99.90
2023-04-20T14:25:22.038Z,99.90
2023-04-20T14:27:50.024Z,99.90
2023-04-20T14:30:18.036Z,99.90
2023-04-20T14:32:56.732Z,99.90
2023-04-20T14:35:26.070Z,99.90
2023-04-20T14:37:54.311Z,99.90
2023-04-20T14:40:23.726Z,99.90
2023-04-20T14:42:51.645Z,99.90
2023-04-20T14:45:19.826Z,99.90
2023-04-20T14:47:47.860Z,99.90
2023-04-20T14:50:15.825Z,99.90
2023-04-20T14:52:43.748Z,99.90
2023-04-20T14:55:11.701Z,99.90
2023-04-20T14:57:41.207Z,99.90
2023-04-20T15:00:11.690Z,99.90
2023-04-20T15:02:40.253Z,99.90
2023-04-20T15:05:10.549Z,99.90
2023-04-20T15:07:39.214Z,99.90
2023-04-20T15:10:07.566Z,99.90
2023-04-20T15:12:35.455Z,97.20
2023-04-20T15:15:05.221Z,99.90
2023-04-20T15:17:33.164Z,99.90
2023-04-20T15:20:01.073Z,99.90
2023-04-20T15:22:28.991Z,99.90
2023-04-20T15:24:56.952Z,99.90
2023-04-20T15:27:24.851Z,99.90
2023-04-20T15:29:52.853Z,99.90
2023-04-20T15:32:22.073Z,99.90
2023-04-20T15:34:50.330Z,99.90
2023-04-20T15:37:18.262Z,99.90
2023-04-20T15:39:46.246Z,99.90
2023-04-20T15:42:14.236Z,99.90
2023-04-20T15:44:42.368Z,99.90
2023-04-20T15:47:10.468Z,99.90
2023-04-20T15:49:40.617Z,99.90
2023-04-20T15:52:09.117Z,99.90
2023-04-20T15:54:37.632Z,99.90
2023-04-20T15:57:05.565Z,99.90
2023-04-20T15:59:33.650Z,99.90
2023-04-20T16:02:01.781Z,99.90
2023-04-20T16:04:29.986Z,99.90
2023-04-20T16:06:59.424Z,99.90
2023-04-20T16:09:27.440Z,99.90
2023-04-20T16:11:55.352Z,99.90
2023-04-20T16:14:23.333Z,99.90
2023-04-20T16:16:51.235Z,99.90
2023-04-20T16:19:19.171Z,99.90
2023-04-20T16:21:47.037Z,99.90
2023-04-20T16:24:16.776Z,99.90
2023-04-20T16:26:45.086Z,99.90
2023-04-20T16:29:13.088Z,99.90
2023-04-20T16:31:41.099Z,99.90
2023-04-20T16:34:09.077Z,99.90
2023-04-20T16:36:36.987Z,99.90
2023-04-20T16:39:05.700Z,99.90
2023-04-20T16:41:34.957Z,99.90
2023-04-20T16:44:02.957Z,99.90
2023-04-20T16:46:31.925Z,99.90
2023-04-20T16:49:00.191Z,99.90
2023-04-20T16:51:29.185Z,99.90
2023-04-20T16:53:57.495Z,99.90
2023-04-20T16:56:25.439Z,99.90
2023-04-20T16:58:54.773Z,99.90
2023-04-20T17:01:22.749Z,99.90
2023-04-20T17:03:51.383Z,99.90
2023-04-20T17:06:19.628Z,99.90
2023-04-20T17:08:49.352Z,99.90
2023-04-20T17:11:19.193Z,99.90
2023-04-20T17:13:47.140Z,99.90
2023-04-20T17:16:16.449Z,99.90
2023-04-20T17:18:44.407Z,99.90
2023-04-20T17:21:12.336Z,99.90
2023-04-20T17:23:41.152Z,99.90
2023-04-20T17:26:09.703Z,99.90
2023-04-20T17:28:37.564Z,99.90
2023-04-20T17:31:05.554Z,99.90
2023-04-20T17:33:34.806Z,99.90
2023-04-20T17:36:02.815Z,99.90
2023-04-20T17:38:30.805Z,99.90
2023-04-20T17:40:58.718Z,99.90
2023-04-20T17:43:26.618Z,99.90
2023-04-20T17:45:54.604Z,99.90
2023-04-20T17:48:22.763Z,99.90
2023-04-20T17:50:52.485Z,99.90
2023-04-20T17:53:20.445Z,99.90
2023-04-20T17:55:48.346Z,99.90
2023-04-20T17:58:16.784Z,99.90
2023-04-20T18:00:45.061Z,99.90
2023-04-20T18:03:14.667Z,99.90
2023-04-20T18:05:43.000Z,99.90
2023-04-20T18:08:13.257Z,99.90
2023-04-20T18:10:41.233Z,99.90
2023-04-20T18:13:09.508Z,99.90
2023-04-20T18:15:37.483Z,99.90
2023-04-20T18:18:05.778Z,99.90
2023-04-20T18:20:33.909Z,99.90
2023-04-20T18:23:01.953Z,99.90
2023-04-20T18:25:31.302Z,99.90
2023-04-20T18:27:59.258Z,99.90
2023-04-20T18:30:27.248Z,99.90
2023-04-20T18:32:55.249Z,99.90
2023-04-20T18:35:23.190Z,99.90
2023-04-20T18:37:51.759Z,99.90
2023-04-20T18:40:19.708Z,99.90
2023-04-20T18:42:48.973Z,99.90
2023-04-20T18:45:17.017Z,99.90
2023-04-20T18:47:44.949Z,99.90
2023-04-20T18:50:12.968Z,99.90
2023-04-20T18:52:41.123Z,99.90
2023-04-20T18:55:09.974Z,99.90
2023-04-20T18:57:37.962Z,99.90
2023-04-20T19:00:09.270Z,99.90
2023-04-20T19:02:37.594Z,99.90
2023-04-20T19:05:06.306Z,99.90
2023-04-20T19:07:34.203Z,99.90
2023-04-20T19:10:02.101Z,99.90
2023-04-20T19:12:30.479Z,99.90
2023-04-20T19:14:58.400Z,99.90
2023-04-20T19:17:27.935Z,99.90
2023-04-20T19:19:56.677Z,99.90
2023-04-20T19:22:24.956Z,99.90
2023-04-20T19:24:53.084Z,99.90
2023-04-20T19:27:21.076Z,99.90
2023-04-20T19:29:49.152Z,99.90
2023-04-20T19:32:17.513Z,99.90
2023-04-20T19:34:47.400Z,99.90
2023-04-20T19:37:16.306Z,99.90
2023-04-20T19:39:44.526Z,99.90
2023-04-20T19:42:12.925Z,99.90
2023-04-20T19:44:41.264Z,99.90
2023-04-20T19:47:11.482Z,99.90
2023-04-20T19:49:40.061Z,99.90
2023-04-20T19:52:10.132Z,99.90
2023-04-20T19:54:38.166Z,99.90
2023-04-20T19:57:06.799Z,99.90
2023-04-20T19:59:37.596Z,99.90
2023-04-20T20:02:06.292Z,99.90
2023-04-20T20:04:37.923Z,99.90
2023-04-20T20:07:06.447Z,99.90
2023-04-20T20:09:36.474Z,99.90
2023-04-20T20:12:08.559Z,99.90
2023-04-20T20:14:37.685Z,99.90
2023-04-20T20:17:06.613Z,99.90
2023-04-20T20:19:35.050Z,99.90
2023-04-20T20:22:03.425Z,99.90
2023-04-20T20:24:31.582Z,99.90
2023-04-20T20:27:02.606Z,99.90
2023-04-20T20:29:30.834Z,99.90
2023-04-20T20:31:59.115Z,99.90
2023-04-20T20:34:27.572Z,99.90
2023-04-20T20:36:56.232Z,99.90
2023-04-20T20:39:26.200Z,99.90
2023-04-20T20:41:57.649Z,99.90
2023-04-20T20:44:28.908Z,99.90
2023-04-20T20:49:43.046Z,99.90
2023-04-20T20:52:14.823Z,99.90
2023-04-20T20:54:43.566Z,99.90
2023-04-20T20:57:13.621Z,99.90
2023-04-20T20:59:55.025Z,99.90
2023-04-20T21:02:23.856Z,99.90
2023-04-20T21:04:55.442Z,99.90
2023-04-20T21:07:42.052Z,99.90
2023-04-20T21:10:15.383Z,99.90
2023-04-20T21:12:46.332Z,99.90
2023-04-20T21:15:20.850Z,99.90
2023-04-20T21:17:49.520Z,99.90
2023-04-20T21:20:17.908Z,99.90
2023-04-20T21:22:46.485Z,99.90
2023-04-20T21:25:14.947Z,99.90
2023-04-20T21:27:43.201Z,99.90
2023-04-20T21:30:13.005Z,99.90
2023-04-20T21:32:42.835Z,99.90
2023-04-20T21:35:11.475Z,99.90
2023-04-20T21:37:39.810Z,99.90
2023-04-20T21:40:09.761Z,99.90
2023-04-20T21:42:38.169Z,99.90
2023-04-20T21:45:09.877Z,99.90
2023-04-20T21:47:39.783Z,99.90
2023-04-20T21:50:12.383Z,99.90
2023-04-20T21:52:40.725Z,99.90
2023-04-20T21:55:10.467Z,99.90
2023-04-20T21:57:38.710Z,99.90
2023-04-20T22:00:08.775Z,99.90
2023-04-20T22:02:36.953Z,99.90
2023-04-20T22:05:09.364Z,99.90
2023-04-20T22:07:38.816Z,99.90
2023-04-20T22:10:08.168Z,99.90
2023-04-20T22:12:40.233Z,99.90
2023-04-20T22:15:10.817Z,99.90
2023-04-20T22:17:42.315Z,99.90
2023-04-20T22:20:12.123Z,99.90
2023-04-20T22:22:42.040Z,99.90
2023-04-20T22:25:11.247Z,99.90
2023-04-20T22:27:40.770Z,99.90
2023-04-20T22:30:09.759Z,99.90
2023-04-20T22:32:38.121Z,99.90
2023-04-20T22:35:07.251Z,99.90
2023-04-20T22:37:35.277Z,99.90
2023-04-20T22:40:06.282Z,99.90
2023-04-20T22:42:36.611Z,99.90
2023-04-20T22:45:07.826Z,99.90
2023-04-20T22:47:35.829Z,99.90
2023-04-20T22:50:07.401Z,99.90
2023-04-20T22:52:38.053Z,99.90
2023-04-20T22:55:09.570Z,99.90
2023-04-20T22:57:39.240Z,99.90
2023-04-20T23:00:16.280Z,99.90
2023-04-20T23:02:44.532Z,99.90
2023-04-20T23:05:12.776Z,99.90
2023-04-20T23:07:41.526Z,99.90
2023-04-20T23:10:12.747Z,99.90
2023-04-20T23:12:40.830Z,99.90
2023-04-20T23:15:10.487Z,99.90
2023-04-20T23:17:38.909Z,99.90
2023-04-20T23:20:09.637Z,99.90
2023-04-20T23:22:37.903Z,99.90
2023-04-20T23:25:06.617Z,99.90
2023-04-20T23:27:35.970Z,99.90
2023-04-20T23:30:04.500Z,99.90
2023-04-20T23:32:32.924Z,99.90
2023-04-20T23:35:01.330Z,99.90
2023-04-20T23:37:29.682Z,99.90
2023-04-20T23:39:58.129Z,99.90
2023-04-20T23:42:26.541Z,99.90
2023-04-20T23:44:56.696Z,99.90
2023-04-20T23:47:24.965Z,99.90
2023-04-20T23:49:55.128Z,99.90
2023-04-20T23:52:26.068Z,99.90
2023-04-20T23:54:54.551Z,99.90
2023-04-20T23:57:22.708Z,99.90
2023-04-20T23:59:51.290Z,99.90
